Time;durP1;ratioP1;P1;durP2;ratioP2;P2;SDS_P1;SDS_P2;PMS_P1;PMS_P2;Temp;Humidity;BMP_temperature;BMP_pressure;BME280_temperature;BME280_humidity;BME280_pressure;Samples;Min_cycle;Max_cycle;Signal;HPM_P1;HPM_P2
2023/10/23 00:02:05;;;;;;;5.47;2.00;;;;;;;;;;5023950;28;20252;-72
2023/10/23 00:04:30;;;;;;;3.72;1.90;;;;;;;;;;5055687;28;20283;-71
2023/10/23 00:06:55;;;;;;;2.80;1.60;;;;;;;;;;5024766;28;20018;-72
2023/10/23 00:09:20;;;;;;;4.20;1.80;;;;;;;;;;5021028;28;20268;-72
2023/10/23 00:11:46;;;;;;;2.63;1.60;;;;;;;;;;5024573;28;20310;-71
2023/10/23 00:14:11;;;;;;;3.58;1.77;;;;;;;;;;5022686;28;20014;-71
2023/10/23 00:16:36;;;;;;;2.73;1.53;;;;;;;;;;5025049;28;20034;-71
2023/10/23 00:19:01;;;;;;;2.90;1.70;;;;;;;;;;5025104;28;20319;-71
2023/10/23 00:21:26;;;;;;;6.15;2.08;;;;;;;;;;5022275;28;20626;-72
2023/10/23 00:23:52;;;;;;;5.15;1.85;;;;;;;;;;5040067;28;20100;-72
2023/10/23 00:26:17;;;;;;;4.18;2.42;;;;;;;;;;5023523;28;20018;-72
2023/10/23 00:28:43;;;;;;;2.70;1.92;;;;;;;;;;5024118;28;20021;-72
2023/10/23 00:31:08;;;;;;;6.20;2.15;;;;;;;;;;5040606;28;20022;-71
2023/10/23 00:33:33;;;;;;;7.87;2.20;;;;;;;;;;5025994;28;20071;-71
2023/10/23 00:35:59;;;;;;;5.13;2.30;;;;;;;;;;5026934;28;20296;-71
2023/10/23 00:38:24;;;;;;;3.78;2.10;;;;;;;;;;5021229;28;20101;-71
2023/10/23 00:40:49;;;;;;;4.73;2.23;;;;;;;;;;5024795;28;20052;-72
2023/10/23 00:43:18;;;;;;;2.80;1.63;;;;;;;;;;5021499;28;20265;-71
2023/10/23 00:45:56;;;;;;;9.13;2.40;;;;;;;;;;5025568;28;20276;-71
2023/10/23 00:48:22;;;;;;;7.75;2.03;;;;;;;;;;5023856;28;20036;-72
2023/10/23 00:50:51;;;;;;;5.07;1.83;;;;;;;;;;5024315;28;20052;-72
2023/10/23 00:53:17;;;;;;;5.32;1.80;;;;;;;;;;5020939;28;20033;-71
2023/10/23 00:55:43;;;;;;;4.75;1.75;;;;;;;;;;5025833;28;20026;-71
2023/10/23 00:58:08;;;;;;;4.85;1.85;;;;;;;;;;5021615;28;20024;-72
2023/10/23 01:00:35;;;;;;;4.25;2.03;;;;;;;;;;5022011;28;20022;-72
2023/10/23 01:03:00;;;;;;;7.18;1.85;;;;;;;;;;5022346;28;20033;-72
2023/10/23 01:05:25;;;;;;;2.88;1.42;;;;;;;;;;5020679;28;20014;-72
2023/10/23 01:07:50;;;;;;;9.88;1.70;;;;;;;;;;5026923;28;20021;-71
2023/10/23 01:10:15;;;;;;;4.10;1.77;;;;;;;;;;5021284;28;20018;-72
2023/10/23 01:12:41;;;;;;;3.35;2.20;;;;;;;;;;5019427;28;20278;-71
2023/10/23 01:15:06;;;;;;;5.15;1.65;;;;;;;;;;5028979;28;20014;-71
2023/10/23 01:17:32;;;;;;;3.45;2.00;;;;;;;;;;5027898;28;20025;-72
2023/10/23 01:19:57;;;;;;;7.38;1.83;;;;;;;;;;5022910;28;20031;-71
2023/10/23 01:22:22;;;;;;;6.90;2.00;;;;;;;;;;5019940;28;20030;-71
2023/10/23 01:24:48;;;;;;;9.13;2.00;;;;;;;;;;5026154;28;20029;-71
2023/10/23 01:27:13;;;;;;;3.28;1.88;;;;;;;;;;5027304;28;20272;-71
2023/10/23 01:29:39;;;;;;;4.70;1.73;;;;;;;;;;5026198;28;20030;-71
2023/10/23 01:32:04;;;;;;;4.68;1.77;;;;;;;;;;5037261;28;20108;-71
2023/10/23 01:34:29;;;;;;;2.30;1.52;;;;;;;;;;5020788;28;20101;-71
2023/10/23 01:36:54;;;;;;;6.63;1.80;;;;;;;;;;5022571;28;20020;-72
2023/10/23 01:39:19;;;;;;;8.40;1.98;;;;;;;;;;5024346;28;20695;-72
2023/10/23 01:41:45;;;;;;;6.63;1.90;;;;;;;;;;5041848;28;20037;-72
2023/10/23 01:44:10;;;;;;;3.17;1.55;;;;;;;;;;5024461;28;20810;-71
2023/10/23 01:46:35;;;;;;;3.95;1.70;;;;;;;;;;5020963;28;20432;-72
2023/10/23 01:49:00;;;;;;;3.77;2.07;;;;;;;;;;5021645;28;20022;-72
2023/10/23 01:51:26;;;;;;;17.67;1.20;;;;;;;;;;5022977;28;20284;-72
2023/10/23 01:53:51;;;;;;;2.40;1.60;;;;;;;;;;5023923;28;20277;-71
2023/10/23 01:56:17;;;;;;;4.33;1.43;;;;;;;;;;5029754;28;20112;-71
2023/10/23 01:58:42;;;;;;;2.42;1.75;;;;;;;;;;5022257;28;20271;-72
2023/10/23 02:01:17;;;;;;;8.32;1.95;;;;;;;;;;5023210;28;20025;-72
2023/10/23 02:03:42;;;;;;;5.72;1.85;;;;;;;;;;5021729;28;20034;-72
2023/10/23 02:06:07;;;;;;;3.70;1.70;;;;;;;;;;5020481;28;20017;-71
2023/10/23 02:08:32;;;;;;;5.60;2.07;;;;;;;;;;5027262;28;20713;-72
2023/10/23 02:10:57;;;;;;;3.35;1.77;;;;;;;;;;5031667;28;20276;-71
2023/10/23 02:13:23;;;;;;;6.67;1.70;;;;;;;;;;5022317;28;20026;-73
2023/10/23 02:15:48;;;;;;;6.77;1.97;;;;;;;;;;5022591;28;20342;-71
2023/10/23 02:18:13;;;;;;;2.67;1.67;;;;;;;;;;5023278;28;20355;-72
2023/10/23 02:20:38;;;;;;;6.80;1.90;;;;;;;;;;5023588;28;20272;-72
2023/10/23 02:23:03;;;;;;;4.72;1.63;;;;;;;;;;5028590;28;20764;-71
2023/10/23 02:25:28;;;;;;;4.70;1.77;;;;;;;;;;5025254;28;20045;-71
2023/10/23 02:27:54;;;;;;;3.57;1.63;;;;;;;;;;5021987;28;20263;-72
2023/10/23 02:30:19;;;;;;;5.90;2.20;;;;;;;;;;5022307;28;20288;-71
2023/10/23 02:32:44;;;;;;;5.30;2.23;;;;;;;;;;5022192;28;20260;-72
2023/10/23 02:35:09;;;;;;;5.23;2.30;;;;;;;;;;5027091;28;20760;-71
2023/10/23 02:37:34;;;;;;;5.30;2.00;;;;;;;;;;5033110;28;20256;-72
2023/10/23 02:39:59;;;;;;;3.27;1.60;;;;;;;;;;5024646;28;20318;-72
2023/10/23 02:42:25;;;;;;;3.00;1.77;;;;;;;;;;5024540;28;20276;-71
2023/10/23 02:44:50;;;;;;;9.55;1.92;;;;;;;;;;5025684;28;20017;-71
2023/10/23 02:47:15;;;;;;;5.25;2.50;;;;;;;;;;5022304;28;20032;-72
2023/10/23 02:49:40;;;;;;;3.60;1.90;;;;;;;;;;5031369;28;20068;-71
2023/10/23 02:52:05;;;;;;;3.40;2.27;;;;;;;;;;5032440;28;20248;-71
2023/10/23 02:54:31;;;;;;;5.43;1.90;;;;;;;;;;5025193;28;20617;-71
2023/10/23 02:56:56;;;;;;;4.05;2.20;;;;;;;;;;5024876;28;20346;-72
2023/10/23 02:59:21;;;;;;;4.47;1.60;;;;;;;;;;5021562;28;20413;-72
2023/10/23 03:01:46;;;;;;;5.63;1.90;;;;;;;;;;5024421;28;20334;-71
2023/10/23 03:04:11;;;;;;;4.83;1.83;;;;;;;;;;5031808;28;20264;-71
2023/10/23 03:06:36;;;;;;;6.70;1.83;;;;;;;;;;5024550;28;20649;-72
2023/10/23 03:09:03;;;;;;;6.00;2.20;;;;;;;;;;5023850;28;20260;-71
2023/10/23 03:11:28;;;;;;;11.60;2.40;;;;;;;;;;5021140;28;20075;-71
2023/10/23 03:13:53;;;;;;;5.32;1.83;;;;;;;;;;5027780;28;20434;-71
2023/10/23 03:16:18;;;;;;;6.65;2.13;;;;;;;;;;5020938;28;20010;-72
2023/10/23 03:18:44;;;;;;;4.83;2.20;;;;;;;;;;5031787;28;20482;-71
2023/10/23 03:21:09;;;;;;;6.05;2.35;;;;;;;;;;5026864;28;20288;-72
2023/10/23 03:23:35;;;;;;;5.97;2.08;;;;;;;;;;5031960;28;20100;-71
2023/10/23 03:26:01;;;;;;;4.57;2.35;;;;;;;;;;5023550;28;20100;-72
2023/10/23 03:28:26;;;;;;;7.38;2.05;;;;;;;;;;5020993;28;20110;-71
2023/10/23 03:30:52;;;;;;;7.03;2.50;;;;;;;;;;5028045;28;20025;-72
2023/10/23 03:33:17;;;;;;;4.65;2.17;;;;;;;;;;5031793;28;20443;-72
2023/10/23 03:35:43;;;;;;;3.90;2.17;;;;;;;;;;5023031;28;20017;-71
2023/10/23 03:38:08;;;;;;;7.18;1.98;;;;;;;;;;5025355;28;20018;-72
2023/10/23 03:40:33;;;;;;;4.53;2.27;;;;;;;;;;5025091;28;20034;-72
2023/10/23 03:42:58;;;;;;;9.53;2.10;;;;;;;;;;5027794;28;20252;-71
2023/10/23 03:45:23;;;;;;;6.50;2.10;;;;;;;;;;5027179;28;20276;-71
2023/10/23 03:47:48;;;;;;;8.67;2.10;;;;;;;;;;5029991;28;20367;-72
2023/10/23 03:50:14;;;;;;;10.97;3.17;;;;;;;;;;5031833;28;21030;-71
2023/10/23 03:52:39;;;;;;;6.30;2.47;;;;;;;;;;5023679;28;20265;-72
2023/10/23 03:55:04;;;;;;;5.63;2.03;;;;;;;;;;5026986;28;20025;-71
2023/10/23 03:57:30;;;;;;;7.50;2.25;;;;;;;;;;5021399;28;20265;-72
2023/10/23 03:59:55;;;;;;;5.17;2.40;;;;;;;;;;5027335;28;20017;-72
2023/10/23 04:02:20;;;;;;;7.00;2.27;;;;;;;;;;5031916;28;20775;-71
2023/10/23 04:04:45;;;;;;;10.20;2.75;;;;;;;;;;5028679;28;20394;-71
2023/10/23 04:07:10;;;;;;;3.67;1.70;;;;;;;;;;5021179;28;20056;-71
2023/10/23 04:09:35;;;;;;;6.93;1.92;;;;;;;;;;5024368;28;20265;-72
2023/10/23 04:12:01;;;;;;;6.77;2.70;;;;;;;;;;5022525;28;20088;-71
2023/10/23 04:14:26;;;;;;;4.70;1.77;;;;;;;;;;5021531;28;20273;-73
2023/10/23 04:16:51;;;;;;;9.35;2.25;;;;;;;;;;5028836;28;20017;-71
2023/10/23 04:19:16;;;;;;;10.13;2.22;;;;;;;;;;5028369;28;20284;-71
2023/10/23 04:21:42;;;;;;;4.67;2.07;;;;;;;;;;5029961;28;20032;-72
2023/10/23 04:24:09;;;;;;;8.17;2.37;;;;;;;;;;5030937;28;20334;-71
2023/10/23 04:26:34;;;;;;;7.10;2.13;;;;;;;;;;5030178;28;20362;-71
2023/10/23 04:28:59;;;;;;;3.50;1.67;;;;;;;;;;5021512;28;20102;-71
2023/10/23 04:31:24;;;;;;;6.87;1.87;;;;;;;;;;5027884;28;20033;-71
2023/10/23 04:33:50;;;;;;;6.93;2.10;;;;;;;;;;5030156;28;21738;-71
2023/10/23 04:36:15;;;;;;;3.37;2.03;;;;;;;;;;5023657;28;20269;-71
2023/10/23 04:38:40;;;;;;;7.70;2.13;;;;;;;;;;5020158;28;20333;-72
2023/10/23 04:41:05;;;;;;;4.97;2.07;;;;;;;;;;5038586;28;20272;-71
2023/10/23 04:43:30;;;;;;;8.02;2.10;;;;;;;;;;5026082;28;20282;-71
2023/10/23 04:45:56;;;;;;;6.95;2.45;;;;;;;;;;5030384;28;20021;-71
2023/10/23 04:48:21;;;;;;;3.70;1.83;;;;;;;;;;5022647;28;20022;-71
2023/10/23 04:50:46;;;;;;;9.85;2.22;;;;;;;;;;5021476;28;20339;-71
2023/10/23 04:53:12;;;;;;;4.20;2.00;;;;;;;;;;5020152;28;20014;-71
2023/10/23 04:55:40;;;;;;;4.07;1.97;;;;;;;;;;5020297;28;20366;-71
2023/10/23 04:58:06;;;;;;;3.60;1.55;;;;;;;;;;5028357;28;20589;-71
2023/10/23 05:00:35;;;;;;;3.72;1.90;;;;;;;;;;5029599;28;20022;-71
2023/10/23 05:03:01;;;;;;;3.60;1.80;;;;;;;;;;5030509;28;20017;-72
2023/10/23 05:05:26;;;;;;;4.50;1.77;;;;;;;;;;5030366;28;20638;-71
2023/10/23 05:07:51;;;;;;;6.77;1.90;;;;;;;;;;5022939;28;20393;-72
2023/10/23 05:10:16;;;;;;;4.68;1.90;;;;;;;;;;5024856;28;20284;-71
2023/10/23 05:12:42;;;;;;;3.42;2.00;;;;;;;;;;5021279;28;20021;-71
2023/10/23 05:15:08;;;;;;;10.50;2.08;;;;;;;;;;5018269;28;20017;-71
2023/10/23 05:17:33;;;;;;;5.00;1.77;;;;;;;;;;5016480;28;20018;-71
2023/10/23 05:19:58;;;;;;;3.58;2.10;;;;;;;;;;5026603;28;20096;-71
2023/10/23 05:22:23;;;;;;;3.27;1.90;;;;;;;;;;5026151;28;20029;-71
2023/10/23 05:24:49;;;;;;;7.32;2.50;;;;;;;;;;5019506;28;20616;-71
2023/10/23 05:27:14;;;;;;;4.25;2.50;;;;;;;;;;5018369;28;20030;-72
2023/10/23 05:29:39;;;;;;;10.07;2.13;;;;;;;;;;5016249;28;20034;-71
2023/10/23 05:32:05;;;;;;;6.20;2.20;;;;;;;;;;5018493;28;20056;-71
2023/10/23 05:34:30;;;;;;;11.00;2.00;;;;;;;;;;5027481;28;20028;-71
2023/10/23 05:36:55;;;;;;;8.80;2.15;;;;;;;;;;5027057;28;20016;-72
2023/10/23 05:39:20;;;;;;;5.37;2.30;;;;;;;;;;5029816;28;20037;-71
2023/10/23 05:41:45;;;;;;;2.95;1.90;;;;;;;;;;5033694;28;20266;-71
2023/10/23 05:44:11;;;;;;;7.10;1.77;;;;;;;;;;5030039;28;20043;-71
2023/10/23 05:46:36;;;;;;;6.65;2.28;;;;;;;;;;5030351;28;20280;-71
2023/10/23 05:49:01;;;;;;;8.75;2.22;;;;;;;;;;5032896;28;20017;-71
2023/10/23 05:51:27;;;;;;;4.65;2.28;;;;;;;;;;5026527;28;20036;-71
2023/10/23 05:53:52;;;;;;;8.67;2.60;;;;;;;;;;5032827;28;20096;-71
2023/10/23 05:56:17;;;;;;;11.30;2.30;;;;;;;;;;5032086;28;20264;-71
2023/10/23 05:58:42;;;;;;;4.10;2.20;;;;;;;;;;5031310;28;20091;-72
2023/10/23 06:01:09;;;;;;;8.25;2.42;;;;;;;;;;5029635;28;20317;-72
2023/10/23 06:03:35;;;;;;;7.00;2.80;;;;;;;;;;5027040;28;20080;-70
2023/10/23 06:06:00;;;;;;;6.57;2.90;;;;;;;;;;5033275;28;20499;-71
2023/10/23 06:08:25;;;;;;;6.40;3.03;;;;;;;;;;5026302;28;20101;-70
2023/10/23 06:10:51;;;;;;;6.30;2.90;;;;;;;;;;5036495;28;20287;-71
2023/10/23 06:13:16;;;;;;;4.55;2.75;;;;;;;;;;5029592;28;20029;-70
2023/10/23 06:15:41;;;;;;;7.73;3.60;;;;;;;;;;5030585;28;20068;-70
2023/10/23 06:18:06;;;;;;;8.37;3.00;;;;;;;;;;5029664;28;20260;-71
2023/10/23 06:20:34;;;;;;;6.55;2.80;;;;;;;;;;5033189;28;20269;-70
2023/10/23 06:22:59;;;;;;;8.60;2.65;;;;;;;;;;5036345;28;20033;-70
2023/10/23 06:25:26;;;;;;;6.68;2.47;;;;;;;;;;5032848;28;20037;-70
2023/10/23 06:27:51;;;;;;;9.40;2.60;;;;;;;;;;5035415;28;20467;-71
2023/10/23 06:30:16;;;;;;;6.73;2.83;;;;;;;;;;5028747;28;20029;-70
2023/10/23 06:32:41;;;;;;;3.90;2.30;;;;;;;;;;5033477;28;20347;-71
2023/10/23 06:35:07;;;;;;;4.93;2.70;;;;;;;;;;5030701;28;20981;-71
2023/10/23 06:37:32;;;;;;;10.90;2.72;;;;;;;;;;5029051;28;20257;-70
2023/10/23 06:39:58;;;;;;;9.60;2.53;;;;;;;;;;5033382;28;20036;-70
2023/10/23 06:42:24;;;;;;;6.47;3.40;;;;;;;;;;5028873;28;20072;-71
2023/10/23 06:44:50;;;;;;;9.48;2.83;;;;;;;;;;5034528;28;20476;-72
2023/10/23 06:47:15;;;;;;;11.80;3.13;;;;;;;;;;5032903;28;20041;-73
2023/10/23 06:49:42;;;;;;;5.95;3.00;;;;;;;;;;5029006;28;20288;-73
2023/10/23 06:52:07;;;;;;;4.43;2.97;;;;;;;;;;5029404;28;20025;-72
2023/10/23 06:54:32;;;;;;;4.37;2.63;;;;;;;;;;5030559;28;20036;-72
2023/10/23 06:56:58;;;;;;;5.97;2.40;;;;;;;;;;5029185;28;20276;-72
2023/10/23 06:59:23;;;;;;;6.20;2.97;;;;;;;;;;5028351;28;20021;-74
2023/10/23 07:01:48;;;;;;;7.80;2.93;;;;;;;;;;5033247;28;20083;-72
2023/10/23 07:04:13;;;;;;;5.37;2.80;;;;;;;;;;5030248;28;20759;-73
2023/10/23 07:06:38;;;;;;;4.23;2.27;;;;;;;;;;5035676;28;20359;-72
2023/10/23 07:09:04;;;;;;;8.07;2.78;;;;;;;;;;5031542;28;20763;-72
2023/10/23 07:11:29;;;;;;;9.43;2.85;;;;;;;;;;5030167;28;20029;-72
2023/10/23 07:13:55;;;;;;;5.32;2.55;;;;;;;;;;5032594;28;20032;-72
2023/10/23 07:16:20;;;;;;;6.93;2.87;;;;;;;;;;5031962;28;20028;-72
2023/10/23 07:18:45;;;;;;;7.97;2.72;;;;;;;;;;5022271;28;20265;-72
2023/10/23 07:21:10;;;;;;;10.50;3.23;;;;;;;;;;5033248;28;20021;-73
2023/10/23 07:23:36;;;;;;;5.72;2.90;;;;;;;;;;5022425;28;20653;-73
2023/10/23 07:26:10;;;;;;;4.13;2.22;;;;;;;;;;5026448;28;20028;-72
2023/10/23 07:28:38;;;;;;;9.40;2.60;;;;;;;;;;5023000;28;20029;-73
2023/10/23 07:31:03;;;;;;;3.72;2.47;;;;;;;;;;5027034;28;20021;-72
2023/10/23 07:33:29;;;;;;;7.78;2.28;;;;;;;;;;5052910;28;20028;-72
2023/10/23 07:36:00;;;;;;;5.05;2.72;;;;;;;;;;5027491;28;20511;-73
2023/10/23 07:38:25;;;;;;;4.50;1.98;;;;;;;;;;5026507;28;20114;-73
2023/10/23 07:40:51;;;;;;;6.00;2.60;;;;;;;;;;5023918;28;20109;-72
2023/10/23 07:43:16;;;;;;;4.73;2.40;;;;;;;;;;5022907;28;20264;-73
2023/10/23 07:45:41;;;;;;;5.27;2.63;;;;;;;;;;5025790;28;20327;-72
2023/10/23 07:48:06;;;;;;;4.85;3.17;;;;;;;;;;5026268;28;20795;-72
2023/10/23 07:50:32;;;;;;;7.40;2.40;;;;;;;;;;5026008;28;20112;-73
2023/10/23 07:52:57;;;;;;;6.30;2.83;;;;;;;;;;5027624;28;20255;-72
2023/10/23 07:55:22;;;;;;;5.10;2.92;;;;;;;;;;5023645;28;20036;-73
2023/10/23 07:57:48;;;;;;;5.70;2.60;;;;;;;;;;5029580;28;20052;-72
2023/10/23 08:00:14;;;;;;;10.43;3.03;;;;;;;;;;5032443;28;20100;-72
2023/10/23 08:02:39;;;;;;;9.30;2.95;;;;;;;;;;5025693;28;20257;-72
2023/10/23 08:05:04;;;;;;;7.57;3.40;;;;;;;;;;5028945;28;20557;-72
2023/10/23 08:07:30;;;;;;;11.73;3.70;;;;;;;;;;5024220;28;20268;-72
2023/10/23 08:09:56;;;;;;;7.68;3.10;;;;;;;;;;5020556;28;20023;-72
2023/10/23 08:12:21;;;;;;;7.27;3.27;;;;;;;;;;5019215;28;20109;-72
2023/10/23 08:14:46;;;;;;;11.90;3.43;;;;;;;;;;5021032;28;20303;-72
2023/10/23 08:17:11;;;;;;;9.07;3.60;;;;;;;;;;5023352;28;20779;-72
2023/10/23 08:19:36;;;;;;;6.25;3.35;;;;;;;;;;5026328;28;20276;-72
2023/10/23 08:22:01;;;;;;;6.03;3.37;;;;;;;;;;5024931;28;20587;-72
2023/10/23 08:24:27;;;;;;;6.00;3.97;;;;;;;;;;5017747;28;20249;-72
2023/10/23 08:26:52;;;;;;;7.73;3.67;;;;;;;;;;5027685;28;20029;-73
2023/10/23 08:29:18;;;;;;;6.53;3.57;;;;;;;;;;5022746;28;20849;-73
2023/10/23 08:31:43;;;;;;;4.72;2.95;;;;;;;;;;5018397;28;20292;-72
2023/10/23 08:34:08;;;;;;;12.23;3.77;;;;;;;;;;5025517;28;20100;-73
2023/10/23 08:36:33;;;;;;;5.10;2.93;;;;;;;;;;5020277;28;20271;-73
2023/10/23 08:38:59;;;;;;;11.98;4.13;;;;;;;;;;5019534;28;20282;-72
2023/10/23 08:41:25;;;;;;;6.30;3.80;;;;;;;;;;5017400;28;20018;-72
2023/10/23 08:43:50;;;;;;;9.05;4.05;;;;;;;;;;5019256;28;20030;-72
2023/10/23 08:46:16;;;;;;;7.40;4.35;;;;;;;;;;5019867;28;20044;-73
2023/10/23 08:48:41;;;;;;;6.43;3.33;;;;;;;;;;5024574;28;20026;-72
2023/10/23 08:51:07;;;;;;;6.15;3.15;;;;;;;;;;5019652;28;20034;-72
2023/10/23 08:53:33;;;;;;;12.02;4.25;;;;;;;;;;5024561;28;20068;-72
2023/10/23 08:56:02;;;;;;;5.82;3.25;;;;;;;;;;5025435;28;20028;-70
2023/10/23 08:58:28;;;;;;;6.38;2.13;;;;;;;;;;5022907;28;20021;-70
2023/10/23 09:00:53;;;;;;;10.48;4.90;;;;;;;;;;5024722;28;20022;-70
2023/10/23 09:03:18;;;;;;;9.63;4.60;;;;;;;;;;5020268;28;20029;-70
2023/10/23 09:05:44;;;;;;;4.82;2.25;;;;;;;;;;5021740;28;20308;-70
2023/10/23 09:08:09;;;;;;;8.13;4.03;;;;;;;;;;5017802;28;20017;-70
2023/10/23 09:10:54;;;;;;;11.77;5.05;;;;;;;;;;5016410;28;20728;-70
2023/10/23 09:13:23;;;;;;;14.52;5.57;;;;;;;;;;5017573;28;20032;-70
2023/10/23 09:15:51;;;;;;;8.80;3.58;;;;;;;;;;5026861;28;20030;-69
2023/10/23 09:18:16;;;;;;;11.75;5.38;;;;;;;;;;5022756;28;20295;-70
2023/10/23 09:20:41;;;;;;;10.40;4.20;;;;;;;;;;5024807;28;20029;-70
2023/10/23 09:23:11;;;;;;;6.38;2.70;;;;;;;;;;5025868;28;20272;-70
2023/10/23 09:25:37;;;;;;;16.50;4.40;;;;;;;;;;5018020;28;20079;-70
2023/10/23 09:28:09;;;;;;;11.48;5.50;;;;;;;;;;5019503;28;20027;-70
2023/10/23 09:30:34;;;;;;;11.98;5.50;;;;;;;;;;5015740;28;20104;-70
2023/10/23 09:32:59;;;;;;;10.02;4.10;;;;;;;;;;5021666;28;20065;-70
2023/10/23 09:35:26;;;;;;;12.90;5.70;;;;;;;;;;5023941;28;20028;-70
2023/10/23 09:37:51;;;;;;;9.05;4.45;;;;;;;;;;5019283;28;20264;-69
2023/10/23 09:40:19;;;;;;;2.72;2.03;;;;;;;;;;5022199;28;20502;-70
2023/10/23 09:42:44;;;;;;;11.18;5.97;;;;;;;;;;5016720;28;20021;-69
2023/10/23 09:45:09;;;;;;;12.77;6.20;;;;;;;;;;5033033;28;20025;-69
2023/10/23 09:47:38;;;;;;;10.18;5.55;;;;;;;;;;5026092;28;20021;-70
2023/10/23 09:50:03;;;;;;;12.90;6.15;;;;;;;;;;5020098;28;20236;-70
2023/10/23 09:52:31;;;;;;;11.13;5.70;;;;;;;;;;5026216;28;20107;-70
2023/10/23 09:54:59;;;;;;;19.15;6.40;;;;;;;;;;5022211;28;20025;-70
2023/10/23 09:57:26;;;;;;;11.30;5.65;;;;;;;;;;5023798;28;20032;-72
2023/10/23 09:59:54;;;;;;;20.20;6.10;;;;;;;;;;5023372;28;20022;-72
2023/10/23 10:02:20;;;;;;;21.50;4.68;;;;;;;;;;5025489;28;20024;-72
2023/10/23 10:04:51;;;;;;;13.00;5.50;;;;;;;;;;5023963;28;20045;-72
2023/10/23 10:07:22;;;;;;;3.75;2.38;;;;;;;;;;5020588;28;20021;-72
2023/10/23 10:09:48;;;;;;;6.72;3.58;;;;;;;;;;5017674;28;20026;-72
2023/10/23 10:12:13;;;;;;;6.10;2.97;;;;;;;;;;5023051;28;20035;-72
2023/10/23 10:14:40;;;;;;;3.58;2.30;;;;;;;;;;5021807;28;20096;-72
2023/10/23 10:17:05;;;;;;;12.90;3.70;;;;;;;;;;5021824;28;20504;-72
2023/10/23 10:19:31;;;;;;;6.32;3.08;;;;;;;;;;5026469;28;20013;-72
2023/10/23 10:22:03;;;;;;;6.80;3.08;;;;;;;;;;5025570;28;21119;-72
2023/10/23 10:24:28;;;;;;;2.47;1.65;;;;;;;;;;5026770;28;20024;-72
2023/10/23 10:26:53;;;;;;;14.13;4.10;;;;;;;;;;5019070;28;20541;-72
2023/10/23 10:29:19;;;;;;;3.30;1.83;;;;;;;;;;5020988;28;20037;-72
2023/10/23 10:32:06;;;;;;;8.23;2.50;;;;;;;;;;5021937;28;20024;-72
2023/10/23 10:34:33;;;;;;;6.20;3.20;;;;;;;;;;5022197;28;20022;-72
2023/10/23 10:36:58;;;;;;;11.50;3.33;;;;;;;;;;5016729;28;20031;-72
2023/10/23 10:39:43;;;;;;;5.65;2.33;;;;;;;;;;5014681;28;20441;-72
2023/10/23 10:42:09;;;;;;;1.67;0.90;;;;;;;;;;5015517;28;20060;-72
2023/10/23 10:44:50;;;;;;;7.45;3.45;;;;;;;;;;5015139;28;20064;-72
2023/10/23 10:47:16;;;;;;;8.18;2.97;;;;;;;;;;5018723;28;20078;-69
2023/10/23 10:49:44;;;;;;;5.63;2.33;;;;;;;;;;5015604;28;20021;-69
2023/10/23 10:52:26;;;;;;;6.20;2.90;;;;;;;;;;5019841;28;20076;-72
2023/10/23 10:54:53;;;;;;;4.20;2.60;;;;;;;;;;5016119;28;20072;-70
2023/10/23 10:57:19;;;;;;;7.68;2.85;;;;;;;;;;5022454;28;20164;-72
2023/10/23 10:59:44;;;;;;;4.78;2.33;;;;;;;;;;5021073;28;20522;-72
2023/10/23 11:02:09;;;;;;;4.28;1.52;;;;;;;;;;5019383;28;20021;-72
2023/10/23 11:04:34;;;;;;;4.70;2.60;;;;;;;;;;5022163;28;20082;-72
2023/10/23 11:06:59;;;;;;;7.37;2.70;;;;;;;;;;5026182;28;20676;-72
2023/10/23 11:09:25;;;;;;;5.63;2.47;;;;;;;;;;5021383;28;20328;-72
2023/10/23 11:11:50;;;;;;;5.13;2.57;;;;;;;;;;5019041;28;20307;-72
2023/10/23 11:14:15;;;;;;;6.40;2.53;;;;;;;;;;5021336;28;20276;-72
2023/10/23 11:16:40;;;;;;;5.33;2.57;;;;;;;;;;5020674;28;20479;-70
2023/10/23 11:19:05;;;;;;;4.25;2.42;;;;;;;;;;5024236;28;20260;-70
2023/10/23 11:21:32;;;;;;;3.05;1.83;;;;;;;;;;5018571;28;20026;-70
2023/10/23 11:23:58;;;;;;;7.30;2.00;;;;;;;;;;5020968;28;20036;-70
2023/10/23 11:26:23;;;;;;;14.10;2.30;;;;;;;;;;5016309;28;20105;-70
2023/10/23 11:28:48;;;;;;;11.25;2.50;;;;;;;;;;5021766;28;20040;-72
2023/10/23 11:31:14;;;;;;;5.80;2.07;;;;;;;;;;5018204;28;20052;-72
2023/10/23 11:33:39;;;;;;;8.73;1.77;;;;;;;;;;5017487;28;20307;-70
2023/10/23 11:36:05;;;;;;;5.57;2.07;;;;;;;;;;5023503;28;20370;-70
2023/10/23 11:38:35;;;;;;;5.63;1.92;;;;;;;;;;5025112;28;20276;-70
2023/10/23 11:41:01;;;;;;;4.43;1.73;;;;;;;;;;5018768;28;20492;-70
2023/10/23 11:43:26;;;;;;;2.15;1.35;;;;;;;;;;5016917;28;20021;-70
2023/10/23 11:45:51;;;;;;;7.17;1.80;;;;;;;;;;5017975;28;20029;-70
2023/10/23 11:48:16;;;;;;;8.30;1.80;;;;;;;;;;5020517;28;20276;-70
2023/10/23 11:50:42;;;;;;;4.10;1.50;;;;;;;;;;5023859;28;20310;-70
2023/10/23 11:53:07;;;;;;;2.60;1.20;;;;;;;;;;5018079;28;20526;-70
2023/10/23 11:55:33;;;;;;;4.23;1.50;;;;;;;;;;5016622;28;20033;-70
2023/10/23 11:57:58;;;;;;;1.92;1.20;;;;;;;;;;5019280;28;20637;-70
2023/10/23 12:00:23;;;;;;;3.53;1.65;;;;;;;;;;5016167;28;20022;-70
2023/10/23 12:02:49;;;;;;;2.35;1.30;;;;;;;;;;5023052;28;20029;-70
2023/10/23 12:05:15;;;;;;;5.72;1.30;;;;;;;;;;5022566;28;20021;-70
2023/10/23 12:07:41;;;;;;;8.55;1.60;;;;;;;;;;5030459;28;20019;-70
2023/10/23 12:10:07;;;;;;;5.43;1.23;;;;;;;;;;5023962;28;20025;-70
2023/10/23 12:12:33;;;;;;;4.25;1.35;;;;;;;;;;5020820;28;20017;-70
2023/10/23 12:14:59;;;;;;;8.83;1.60;;;;;;;;;;5029512;28;20506;-70
2023/10/23 12:17:24;;;;;;;3.83;1.10;;;;;;;;;;5015512;28;20340;-70
2023/10/23 12:19:49;;;;;;;6.93;1.70;;;;;;;;;;5023847;28;20554;-70
2023/10/23 12:22:14;;;;;;;5.53;1.30;;;;;;;;;;5028942;28;20260;-70
2023/10/23 12:24:39;;;;;;;3.25;1.50;;;;;;;;;;5019399;28;20509;-70
2023/10/23 12:27:05;;;;;;;4.57;1.50;;;;;;;;;;5025806;28;20021;-70
2023/10/23 12:29:30;;;;;;;6.93;1.45;;;;;;;;;;5021234;28;20352;-70
2023/10/23 12:31:56;;;;;;;7.27;1.30;;;;;;;;;;5020417;28;20021;-70
2023/10/23 12:34:21;;;;;;;2.43;1.20;;;;;;;;;;5030422;28;20284;-70
2023/10/23 12:36:46;;;;;;;6.13;1.40;;;;;;;;;;5028172;28;20295;-70
2023/10/23 12:39:11;;;;;;;2.58;1.20;;;;;;;;;;5030969;28;20695;-70
2023/10/23 12:41:36;;;;;;;4.17;1.03;;;;;;;;;;5037959;28;20104;-71
2023/10/23 12:44:02;;;;;;;2.90;1.00;;;;;;;;;;5040872;28;20259;-70
2023/10/23 12:46:27;;;;;;;7.90;1.30;;;;;;;;;;5038881;28;20443;-71
2023/10/23 12:48:52;;;;;;;10.77;1.33;;;;;;;;;;5037144;28;20461;-71
2023/10/23 12:51:19;;;;;;;6.07;1.38;;;;;;;;;;5046436;28;20281;-71
2023/10/23 12:53:44;;;;;;;2.58;1.00;;;;;;;;;;5040274;28;20041;-71
2023/10/23 12:56:09;;;;;;;6.97;1.90;;;;;;;;;;5033497;28;20485;-71
2023/10/23 12:58:35;;;;;;;2.37;0.90;;;;;;;;;;5033781;28;20272;-71
2023/10/23 13:01:00;;;;;;;7.22;1.38;;;;;;;;;;5037664;28;20406;-71
2023/10/23 13:03:25;;;;;;;4.45;1.40;;;;;;;;;;5033861;28;20036;-71
2023/10/23 13:05:50;;;;;;;6.07;1.20;;;;;;;;;;5030288;28;20046;-72
2023/10/23 13:08:16;;;;;;;3.40;1.10;;;;;;;;;;5023873;28;20100;-71
2023/10/23 13:10:41;;;;;;;6.77;1.43;;;;;;;;;;5014544;28;20049;-71
2023/10/23 13:13:06;;;;;;;3.72;1.45;;;;;;;;;;5016233;28;20020;-71
2023/10/23 13:15:31;;;;;;;7.28;1.30;;;;;;;;;;5014473;28;20038;-71
2023/10/23 13:17:58;;;;;;;2.87;0.90;;;;;;;;;;5022074;28;20071;-71
2023/10/23 13:20:23;;;;;;;8.13;1.33;;;;;;;;;;5026943;28;20274;-71
2023/10/23 13:22:49;;;;;;;6.30;1.00;;;;;;;;;;5015607;28;20022;-71
2023/10/23 13:25:15;;;;;;;4.28;1.33;;;;;;;;;;5015021;28;20045;-71
2023/10/23 13:27:41;;;;;;;7.60;0.98;;;;;;;;;;5026118;28;20040;-71
2023/10/23 13:30:06;;;;;;;2.85;1.00;;;;;;;;;;5028394;28;20030;-71
2023/10/23 13:32:33;;;;;;;5.80;2.38;;;;;;;;;;5015109;28;20033;-71
2023/10/23 13:34:58;;;;;;;4.82;1.35;;;;;;;;;;5022348;28;20053;-71
2023/10/23 13:37:23;;;;;;;12.85;1.55;;;;;;;;;;5015550;28;20052;-71
2023/10/23 13:39:49;;;;;;;5.13;1.37;;;;;;;;;;5014250;28;20030;-71
2023/10/23 13:42:14;;;;;;;8.53;1.70;;;;;;;;;;5028827;28;20486;-71
2023/10/23 13:44:39;;;;;;;7.47;1.47;;;;;;;;;;5024390;28;20257;-71
2023/10/23 13:47:04;;;;;;;5.83;2.50;;;;;;;;;;5022215;28;20263;-71
2023/10/23 13:49:29;;;;;;;6.55;1.60;;;;;;;;;;5020197;28;20104;-71
2023/10/23 13:51:55;;;;;;;7.73;1.70;;;;;;;;;;5016942;28;20072;-71
2023/10/23 13:54:20;;;;;;;5.70;1.20;;;;;;;;;;5013404;28;20603;-71
2023/10/23 13:56:48;;;;;;;4.80;1.90;;;;;;;;;;5024213;28;20398;-71
2023/10/23 13:59:13;;;;;;;7.45;1.10;;;;;;;;;;5035193;28;20263;-71
2023/10/23 14:01:39;;;;;;;5.85;1.02;;;;;;;;;;5043282;28;20390;-71
2023/10/23 14:04:04;;;;;;;5.45;1.45;;;;;;;;;;5040508;28;20025;-72
2023/10/23 14:06:30;;;;;;;6.97;1.17;;;;;;;;;;5032764;28;20055;-71
2023/10/23 14:08:55;;;;;;;8.23;1.33;;;;;;;;;;5028145;28;20025;-71
2023/10/23 14:11:21;;;;;;;7.90;1.45;;;;;;;;;;5030174;28;20279;-71
2023/10/23 14:13:46;;;;;;;6.40;1.57;;;;;;;;;;5023378;28;20118;-71
2023/10/23 14:16:12;;;;;;;5.03;1.30;;;;;;;;;;5026231;28;20914;-71
2023/10/23 14:18:37;;;;;;;11.15;1.25;;;;;;;;;;5034733;28;20264;-71
2023/10/23 14:21:03;;;;;;;3.10;1.08;;;;;;;;;;5039663;28;20044;-71
2023/10/23 14:23:29;;;;;;;4.03;1.40;;;;;;;;;;5039741;28;20546;-71
2023/10/23 14:25:54;;;;;;;5.53;1.08;;;;;;;;;;5035956;28;20057;-71
2023/10/23 14:28:19;;;;;;;2.70;0.93;;;;;;;;;;5036340;28;20064;-71
2023/10/23 14:30:44;;;;;;;6.87;1.30;;;;;;;;;;5035138;28;20496;-72
2023/10/23 14:33:09;;;;;;;2.75;1.02;;;;;;;;;;5050756;28;20247;-71